createdAt,value
2019-02-20T00:02:01.298Z,100418.27
2019-02-20T00:04:32.210Z,100421.89
2019-02-20T00:07:02.984Z,100421.45
2019-02-20T00:09:33.980Z,100413.45
2019-02-20T00:12:05.133Z,100419.36
2019-02-20T00:14:36.116Z,100418.19
2019-02-20T00:17:07.538Z,100424.53
2019-02-20T00:19:38.587Z,100425.34
2019-02-20T00:22:09.638Z,100426.87
2019-02-20T00:24:40.569Z,100429.00
2019-02-20T00:27:11.333Z,100426.34
2019-02-20T00:29:42.384Z,100423.63
2019-02-20T00:32:13.142Z,100420.70
2019-02-20T00:34:44.366Z,100419.73
2019-02-20T00:37:15.151Z,100419.16
2019-02-20T00:39:46.180Z,100422.31
2019-02-20T00:42:17.022Z,100420.25
2019-02-20T00:45:06.801Z,100420.80
2019-02-20T00:48:08.701Z,100428.83
2019-02-20T00:50:39.964Z,100422.41
2019-02-20T00:53:15.506Z,100426.66
2019-02-20T00:55:46.745Z,100430.41
2019-02-20T00:58:17.512Z,100432.70
2019-02-20T01:00:48.740Z,100438.11
2019-02-20T01:03:19.735Z,100434.80
2019-02-20T01:05:50.478Z,100433.62
2019-02-20T01:08:21.252Z,100428.92
2019-02-20T01:10:52.076Z,100428.32
2019-02-20T01:13:22.843Z,100433.22
2019-02-20T01:15:54.060Z,100442.73
2019-02-20T01:18:24.825Z,100437.16
2019-02-20T01:20:55.654Z,100437.59
2019-02-20T01:23:26.670Z,100447.39
2019-02-20T01:25:57.717Z,100447.86
2019-02-20T01:28:28.769Z,100444.42
2019-02-20T01:30:59.523Z,100444.20
2019-02-20T01:33:30.526Z,100438.88
2019-02-20T01:36:01.753Z,100438.14
2019-02-20T01:38:33.052Z,100434.83
2019-02-20T01:41:03.883Z,100443.47
2019-02-20T01:43:34.887Z,100439.19
2019-02-20T01:46:05.948Z,100434.56
2019-02-20T01:48:37.217Z,100434.26
2019-02-20T01:51:08.440Z,100437.59
2019-02-20T01:53:39.205Z,100436.22
2019-02-20T01:56:10.455Z,100430.65
2019-02-20T01:58:41.655Z,100432.44
2019-02-20T02:01:12.479Z,100426.59
2019-02-20T02:03:43.254Z,100426.98
2019-02-20T02:06:14.298Z,100431.38
2019-02-20T02:08:45.326Z,100425.16
2019-02-20T02:11:16.495Z,100429.73
2019-02-20T02:13:47.518Z,100421.22
2019-02-20T02:16:18.270Z,100424.38
2019-02-20T02:18:49.042Z,100420.82
2019-02-20T02:21:19.806Z,100428.10
2019-02-20T02:23:50.659Z,100425.26
2019-02-20T02:26:21.410Z,100428.04
2019-02-20T02:28:52.474Z,100423.10
2019-02-20T02:31:23.532Z,100428.13
2019-02-20T02:33:54.300Z,100420.31
2019-02-20T02:36:25.325Z,100424.25
2019-02-20T02:38:56.327Z,100419.94
2019-02-20T02:41:27.537Z,100415.91
2019-02-20T02:43:58.785Z,100415.04
2019-02-20T02:46:29.627Z,100406.22
2019-02-20T02:49:00.388Z,100405.56
2019-02-20T02:51:31.207Z,100401.00
2019-02-20T02:54:02.311Z,100408.40
2019-02-20T02:56:33.073Z,100409.66
2019-02-20T02:59:03.918Z,100412.77
2019-02-20T03:01:34.734Z,100414.45
2019-02-20T03:04:06.062Z,100409.59
2019-02-20T03:06:37.065Z,100406.69
2019-02-20T03:09:08.755Z,100410.84
2019-02-20T03:11:40.973Z,100408.05
2019-02-20T03:14:12.110Z,100409.56
2019-02-20T03:16:43.247Z,100408.59
2019-02-20T03:19:15.520Z,100409.87
2019-02-20T03:21:46.560Z,100406.91
2019-02-20T03:24:17.760Z,100411.62
2019-02-20T03:26:49.120Z,100411.72
2019-02-20T03:29:20.194Z,100415.09
2019-02-20T03:31:51.212Z,100409.81
2019-02-20T03:34:22.780Z,100410.56
2019-02-20T03:36:54.159Z,100412.94
2019-02-20T03:39:26.786Z,100409.69
2019-02-20T03:41:57.959Z,100404.25
2019-02-20T03:44:29.000Z,100408.00
2019-02-20T03:47:00.619Z,100406.27
2019-02-20T03:49:31.610Z,100418.12
2019-02-20T03:52:02.878Z,100417.89
2019-02-20T03:54:33.946Z,100422.38
2019-02-20T03:57:05.012Z,100419.08
2019-02-20T03:59:36.153Z,100426.70
2019-02-20T04:02:07.408Z,100423.06
2019-02-20T04:04:38.189Z,100429.38
2019-02-20T04:07:09.320Z,100425.28
2019-02-20T04:09:40.080Z,100431.45
2019-02-20T04:12:10.857Z,100434.37
2019-02-20T04:14:41.628Z,100429.65
2019-02-20T04:17:12.391Z,100431.28
2019-02-20T04:19:43.175Z,100427.53
2019-02-20T04:22:13.945Z,100429.34
2019-02-20T04:24:45.362Z,100437.05
2019-02-20T04:27:16.891Z,100437.45
2019-02-20T04:29:48.216Z,100433.44
2019-02-20T04:32:19.900Z,100431.17
2019-02-20T04:34:50.688Z,100439.38
2019-02-20T04:37:21.775Z,100444.13
2019-02-20T04:39:52.570Z,100443.16
2019-02-20T04:42:23.780Z,100444.06
2019-02-20T04:44:54.560Z,100439.70
2019-02-20T04:47:25.415Z,100435.22
2019-02-20T04:49:56.580Z,100436.02
2019-02-20T04:52:27.433Z,100441.28
2019-02-20T04:54:59.093Z,100440.71
2019-02-20T04:57:29.953Z,100435.44
2019-02-20T05:00:00.881Z,100439.37
2019-02-20T05:02:32.409Z,100443.87
2019-02-20T05:05:03.657Z,100444.14
2019-02-20T05:07:34.460Z,100444.33
2019-02-20T05:10:05.987Z,100448.25
2019-02-20T05:12:37.272Z,100446.92
2019-02-20T05:15:08.349Z,100449.30
2019-02-20T05:17:39.118Z,100449.91
2019-02-20T05:20:09.994Z,100453.31
2019-02-20T05:22:40.771Z,100443.36
2019-02-20T05:25:12.600Z,100450.50
2019-02-20T05:27:43.485Z,100456.58
2019-02-20T05:30:14.576Z,100459.72
2019-02-20T05:32:45.341Z,100452.18
2019-02-20T05:35:16.171Z,100458.38
2019-02-20T05:37:46.940Z,100459.25
2019-02-20T05:40:17.719Z,100462.07
2019-02-20T05:42:48.929Z,100455.01
2019-02-20T05:45:19.801Z,100466.02
2019-02-20T05:47:50.828Z,100465.60
2019-02-20T05:50:22.238Z,100465.42
2019-02-20T05:52:53.260Z,100468.31
2019-02-20T05:55:24.072Z,100464.37
2019-02-20T05:57:55.067Z,100467.72
2019-02-20T06:00:25.844Z,100464.14
2019-02-20T06:02:56.846Z,100473.70
2019-02-20T06:05:27.863Z,100464.80
2019-02-20T06:07:58.625Z,100471.37
2019-02-20T06:10:29.930Z,100469.36
2019-02-20T06:13:00.962Z,100485.65
2019-02-20T06:15:32.004Z,100481.48
2019-02-20T06:18:03.031Z,100492.20
2019-02-20T06:20:33.927Z,100493.20
2019-02-20T06:23:04.656Z,100498.70
2019-02-20T06:25:35.446Z,100493.39
2019-02-20T06:28:06.209Z,100493.05
2019-02-20T06:30:37.062Z,100491.67
2019-02-20T06:33:07.831Z,100498.52
2019-02-20T06:35:38.912Z,100500.03
2019-02-20T06:38:11.361Z,100503.50
2019-02-20T06:40:42.380Z,100507.07
2019-02-20T06:43:13.392Z,100505.05
2019-02-20T06:45:44.169Z,100504.48
2019-02-20T06:48:15.152Z,100512.98
2019-02-20T06:50:46.356Z,100508.37
2019-02-20T06:53:17.215Z,100511.14
2019-02-20T06:55:48.565Z,100507.59
2019-02-20T06:58:19.381Z,100511.99
2019-02-20T07:00:50.411Z,100511.19
2019-02-20T07:03:21.509Z,100519.63
2019-02-20T07:06:21.828Z,100512.53
2019-02-20T07:09:29.789Z,100514.92
2019-02-20T07:12:36.059Z,100515.30
2019-02-20T07:15:46.627Z,100511.98
2019-02-20T07:18:43.415Z,100521.50
2019-02-20T07:21:42.787Z,100521.84
2019-02-20T07:24:47.401Z,100520.38
2019-02-20T07:27:46.312Z,100523.45
2019-02-20T07:30:17.494Z,100523.75
2019-02-20T07:32:48.551Z,100519.95
2019-02-20T07:35:19.405Z,100517.84
2019-02-20T07:37:50.167Z,100523.24
2019-02-20T07:40:21.085Z,100520.12
2019-02-20T07:42:52.057Z,100519.78
2019-02-20T07:45:22.827Z,100530.28
2019-02-20T07:47:53.890Z,100533.38
2019-02-20T07:50:25.002Z,100525.05
2019-02-20T07:52:55.841Z,100531.09
2019-02-20T07:55:26.906Z,100529.97
2019-02-20T07:57:57.916Z,100543.16
2019-02-20T08:00:28.689Z,100548.13
2019-02-20T08:02:59.700Z,100555.69
2019-02-20T08:05:30.553Z,100550.66
2019-02-20T08:08:01.316Z,100562.98
2019-02-20T08:10:32.185Z,100566.75
2019-02-20T08:13:02.947Z,100567.15
2019-02-20T08:15:33.755Z,100568.44
2019-02-20T08:18:04.592Z,100572.16
2019-02-20T08:20:35.625Z,100572.41
2019-02-20T08:23:06.716Z,100570.99
2019-02-20T08:25:37.500Z,100570.59
2019-02-20T08:28:08.340Z,100575.74
2019-02-20T08:30:39.123Z,100577.95
2019-02-20T08:33:09.880Z,100586.94
2019-02-20T08:35:40.724Z,100581.73
2019-02-20T08:38:12.039Z,100587.53
2019-02-20T08:40:43.097Z,100590.97
2019-02-20T08:43:14.159Z,100589.87
2019-02-20T08:45:45.151Z,100589.70
2019-02-20T08:48:15.989Z,100593.03
2019-02-20T08:50:46.772Z,100600.20
2019-02-20T08:53:18.296Z,100605.85
2019-02-20T08:55:50.268Z,100609.14
2019-02-20T08:58:21.027Z,100608.68
2019-02-20T09:00:52.119Z,100607.83
2019-02-20T09:03:22.875Z,100614.52
2019-02-20T09:05:54.856Z,100618.06
2019-02-20T09:08:25.669Z,100611.25
2019-02-20T09:10:56.436Z,100615.88
2019-02-20T09:13:28.166Z,100614.95
2019-02-20T09:15:59.422Z,100630.03
2019-02-20T09:18:30.432Z,100629.58
2019-02-20T09:21:01.208Z,100626.50
2019-02-20T09:23:32.081Z,100629.63
2019-02-20T09:26:03.060Z,100638.28
2019-02-20T09:28:34.428Z,100638.86
2019-02-20T09:31:05.223Z,100633.75
2019-02-20T09:33:35.985Z,100629.95
2019-02-20T09:36:06.765Z,100627.37
2019-02-20T09:38:37.618Z,100628.81
2019-02-20T09:41:08.711Z,100633.16
2019-02-20T09:43:39.770Z,100635.22
2019-02-20T09:46:10.907Z,100639.32
2019-02-20T09:48:41.962Z,100643.65
2019-02-20T09:51:12.798Z,100646.54
2019-02-20T09:53:44.047Z,100647.22
2019-02-20T09:56:16.155Z,100648.48
2019-02-20T09:58:47.030Z,100643.30
2019-02-20T10:01:18.772Z,100647.03
2019-02-20T10:03:49.611Z,100642.33
2019-02-20T10:06:20.876Z,100647.67
2019-02-20T10:08:52.115Z,100644.30
2019-02-20T10:11:23.120Z,100648.70
2019-02-20T10:13:53.879Z,100656.98
2019-02-20T10:16:25.015Z,100661.39
2019-02-20T10:18:55.723Z,100664.20
2019-02-20T10:21:26.799Z,100666.00
2019-02-20T10:23:57.559Z,100664.03
2019-02-20T10:26:28.485Z,100667.03
2019-02-20T10:28:59.470Z,100664.48
2019-02-20T10:31:30.244Z,100663.97
2019-02-20T10:34:00.998Z,100664.65
2019-02-20T10:36:31.778Z,100660.48
2019-02-20T10:39:02.821Z,100664.47
2019-02-20T10:41:35.669Z,100667.51
2019-02-20T10:44:06.434Z,100660.48
2019-02-20T10:46:38.172Z,100664.24
2019-02-20T10:49:08.936Z,100653.66
2019-02-20T10:51:40.021Z,100657.95
2019-02-20T10:54:10.780Z,100664.75
2019-02-20T10:56:41.636Z,100658.42
2019-02-20T10:59:12.481Z,100656.31
2019-02-20T11:01:43.250Z,100660.84
2019-02-20T11:04:14.086Z,100657.52
2019-02-20T11:06:45.148Z,100656.69
2019-02-20T11:09:16.046Z,100654.27
2019-02-20T11:11:47.177Z,100658.19
2019-02-20T11:14:17.939Z,100661.14
2019-02-20T11:16:48.951Z,100648.33
2019-02-20T11:19:19.945Z,100659.76
2019-02-20T11:21:50.972Z,100659.48
2019-02-20T11:24:22.227Z,100658.16
2019-02-20T11:26:55.118Z,100656.12
2019-02-20T11:29:25.573Z,100649.80
2019-02-20T11:31:56.650Z,100654.52
2019-02-20T11:34:27.907Z,100650.67
2019-02-20T11:36:58.984Z,100650.39
2019-02-20T11:39:37.466Z,100645.20
2019-02-20T11:42:02.722Z,100643.34
2019-02-20T11:44:33.496Z,100642.34
2019-02-20T11:47:04.352Z,100645.67
2019-02-20T11:49:35.117Z,100645.42
2019-02-20T11:52:05.928Z,100644.84
2019-02-20T11:54:36.933Z,100639.49
2019-02-20T11:57:07.944Z,100635.25
2019-02-20T11:59:38.744Z,100633.69
2019-02-20T12:02:09.613Z,100628.99
2019-02-20T12:04:40.622Z,100629.33
2019-02-20T12:07:11.992Z,100624.66
2019-02-20T12:09:42.836Z,100623.02
2019-02-20T12:12:13.943Z,100623.06
2019-02-20T12:14:44.715Z,100623.94
2019-02-20T12:17:15.588Z,100626.50
2019-02-20T12:19:46.429Z,100622.13
2019-02-20T12:22:17.943Z,100627.44
2019-02-20T12:24:48.944Z,100620.50
2019-02-20T12:27:20.342Z,100624.32
2019-02-20T12:29:51.349Z,100613.98
2019-02-20T12:32:22.212Z,100615.96
2019-02-20T12:34:53.397Z,100612.42
2019-02-20T12:37:25.098Z,100612.42
2019-02-20T12:39:55.903Z,100617.39
2019-02-20T12:42:26.695Z,100617.22
2019-02-20T12:44:58.641Z,100618.22
2019-02-20T12:47:29.424Z,100616.37
2019-02-20T12:50:00.417Z,100614.88
2019-02-20T12:52:31.954Z,100621.03
2019-02-20T12:55:02.962Z,100617.55
2019-02-20T12:57:33.827Z,100616.29
2019-02-20T13:00:04.919Z,100614.05
2019-02-20T13:02:37.256Z,100614.23
2019-02-20T13:05:08.455Z,100604.58
2019-02-20T13:07:39.629Z,100600.93
2019-02-20T13:10:10.733Z,100606.17
2019-02-20T13:12:41.723Z,100600.43
2019-02-20T13:15:12.743Z,100600.74
2019-02-20T13:17:43.744Z,100604.45
2019-02-20T13:20:14.842Z,100603.49
2019-02-20T13:22:45.905Z,100596.18
2019-02-20T13:25:16.944Z,100595.44
2019-02-20T13:27:47.944Z,100593.77
2019-02-20T13:30:19.036Z,100589.96
2019-02-20T13:32:51.058Z,100588.77
2019-02-20T13:35:22.538Z,100592.87
2019-02-20T13:37:53.391Z,100593.55
2019-02-20T13:40:24.635Z,100584.75
2019-02-20T13:42:55.638Z,100586.06
2019-02-20T13:45:26.759Z,100584.31
2019-02-20T13:47:57.533Z,100584.31
2019-02-20T13:50:28.645Z,100582.89
2019-02-20T13:52:59.509Z,100585.95
2019-02-20T13:55:34.468Z,100577.47
2019-02-20T13:58:02.833Z,100579.27
2019-02-20T14:00:33.932Z,100575.11
2019-02-20T14:03:05.262Z,100578.98
2019-02-20T14:05:36.263Z,100580.02
2019-02-20T14:08:07.146Z,100575.43
2019-02-20T14:10:37.944Z,100576.34
2019-02-20T14:13:08.787Z,100574.89
2019-02-20T14:15:39.908Z,100569.30
2019-02-20T14:18:10.919Z,100571.84
2019-02-20T14:20:42.036Z,100571.42
2019-02-20T14:23:13.062Z,100573.67
2019-02-20T14:25:44.443Z,100567.97
2019-02-20T14:28:15.237Z,100568.99
2019-02-20T14:30:46.890Z,100561.48
2019-02-20T14:33:18.154Z,100568.70
2019-02-20T14:35:49.289Z,100575.36
2019-02-20T14:38:21.112Z,100571.52
2019-02-20T14:40:52.245Z,100565.84
2019-02-20T14:43:23.282Z,100562.16
2019-02-20T14:45:54.420Z,100563.54
2019-02-20T14:48:26.493Z,100559.24
2019-02-20T14:50:57.271Z,100567.80
2019-02-20T14:53:28.118Z,100563.36
2019-02-20T14:55:59.132Z,100562.00
2019-02-20T14:58:30.102Z,100563.28
2019-02-20T15:01:01.116Z,100563.56
2019-02-20T15:03:33.258Z,100558.47
2019-02-20T15:06:04.040Z,100562.63
2019-02-20T15:08:35.133Z,100560.61
2019-02-20T15:11:06.493Z,100557.65
2019-02-20T15:13:37.359Z,100561.75
2019-02-20T15:16:08.138Z,100562.63
2019-02-20T15:18:39.500Z,100560.48
2019-02-20T15:21:10.654Z,100561.50
2019-02-20T15:23:41.518Z,100563.14
2019-02-20T15:26:12.575Z,100557.56
2019-02-20T15:28:43.359Z,100557.66
2019-02-20T15:31:14.513Z,100561.78
2019-02-20T15:33:45.373Z,100560.98
2019-02-20T15:36:16.220Z,100558.93
2019-02-20T15:38:48.457Z,100559.45
2019-02-20T15:41:19.526Z,100556.23
2019-02-20T15:43:51.552Z,100560.40
2019-02-20T15:46:23.556Z,100558.58
2019-02-20T15:48:54.388Z,100560.41
2019-02-20T15:51:25.501Z,100551.00
2019-02-20T15:53:56.282Z,100559.28
2019-02-20T15:56:27.304Z,100552.52
2019-02-20T15:58:58.627Z,100551.63
2019-02-20T16:01:29.882Z,100552.66
2019-02-20T16:04:00.662Z,100554.84
2019-02-20T16:06:31.494Z,100561.08
2019-02-20T16:09:02.279Z,100556.79
2019-02-20T16:11:34.661Z,100555.87
2019-02-20T16:14:05.738Z,100552.45
2019-02-20T16:16:36.728Z,100556.94
2019-02-20T16:19:07.818Z,100556.36
2019-02-20T16:21:38.574Z,100564.25
2019-02-20T16:24:09.586Z,100571.02
2019-02-20T16:26:40.819Z,100574.64
2019-02-20T16:29:13.630Z,100572.80
2019-02-20T16:31:44.730Z,100573.92
2019-02-20T16:34:15.631Z,100569.42
2019-02-20T16:36:46.717Z,100568.71
2019-02-20T16:39:17.487Z,100574.64
2019-02-20T16:41:48.249Z,100573.91
2019-02-20T16:44:19.098Z,100571.95
2019-02-20T16:46:50.279Z,100572.50
2019-02-20T16:49:21.278Z,100575.38
2019-02-20T16:51:52.202Z,100566.26
2019-02-20T16:54:23.196Z,100567.34
2019-02-20T16:56:54.023Z,100568.34
2019-02-20T16:59:25.672Z,100574.90
2019-02-20T17:01:56.738Z,100566.88
2019-02-20T17:04:27.775Z,100568.85
2019-02-20T17:06:58.776Z,100572.73
2019-02-20T17:09:30.598Z,100580.27
2019-02-20T17:12:01.525Z,100580.97
2019-02-20T17:14:32.323Z,100580.23
2019-02-20T17:17:03.164Z,100573.70
2019-02-20T17:19:34.124Z,100573.48
2019-02-20T17:22:04.887Z,100571.23
2019-02-20T17:24:35.722Z,100580.26
2019-02-20T17:27:07.280Z,100584.09
2019-02-20T17:29:38.413Z,100586.80
2019-02-20T17:32:09.163Z,100589.43
2019-02-20T17:34:39.934Z,100587.86
2019-02-20T17:37:10.920Z,100588.89
2019-02-20T17:39:42.238Z,100595.08
2019-02-20T17:42:13.026Z,100597.08
2019-02-20T17:44:43.865Z,100602.55
2019-02-20T17:47:14.869Z,100611.07
2019-02-20T17:49:45.720Z,100608.21
2019-02-20T17:52:16.754Z,100605.70
2019-02-20T17:54:47.768Z,100604.87
2019-02-20T17:57:18.822Z,100611.55
2019-02-20T17:59:49.955Z,100620.58
2019-02-20T18:02:20.718Z,100617.84
2019-02-20T18:04:51.750Z,100618.35
2019-02-20T18:07:22.815Z,100625.27
2019-02-20T18:09:53.594Z,100627.84
2019-02-20T18:12:24.596Z,100628.49
2019-02-20T18:14:55.457Z,100634.55
2019-02-20T18:17:26.220Z,100637.28
2019-02-20T18:19:57.244Z,100637.28
2019-02-20T18:22:28.002Z,100642.67
2019-02-20T18:24:59.045Z,100642.88
2019-02-20T18:27:29.884Z,100643.55
2019-02-20T18:30:01.415Z,100646.22
2019-02-20T18:32:32.600Z,100641.42
2019-02-20T18:35:03.627Z,100646.39
2019-02-20T18:37:35.587Z,100647.54
2019-02-20T18:40:06.930Z,100652.23
2019-02-20T18:42:38.220Z,100654.56
2019-02-20T18:45:10.044Z,100657.81
2019-02-20T18:47:40.873Z,100656.63
2019-02-20T18:50:12.031Z,100658.38
2019-02-20T18:52:43.517Z,100657.22
2019-02-20T18:55:14.439Z,100657.72
2019-02-20T18:57:45.467Z,100663.81
2019-02-20T19:00:17.873Z,100663.81
2019-02-20T19:02:49.181Z,100666.70
2019-02-20T19:05:20.380Z,100664.45
2019-02-20T19:07:51.459Z,100667.35
2019-02-20T19:10:26.881Z,100662.41
2019-02-20T19:13:39.070Z,100665.70
2019-02-20T19:16:53.103Z,100664.42
2019-02-20T19:19:38.901Z,100674.30
2019-02-20T19:22:26.642Z,100666.02
2019-02-20T19:25:59.726Z,100671.50
2019-02-20T19:29:08.103Z,100672.42
2019-02-20T19:32:06.538Z,100681.45
2019-02-20T19:35:00.911Z,100673.58
2019-02-20T19:38:10.919Z,100680.17
2019-02-20T19:41:23.014Z,100688.80
2019-02-20T19:44:16.362Z,100686.80
2019-02-20T19:47:11.755Z,100689.52
2019-02-20T19:50:23.977Z,100684.14
2019-02-20T19:53:25.395Z,100692.68
2019-02-20T19:56:32.711Z,100678.35
2019-02-20T19:59:20.940Z,100687.24
2019-02-20T20:02:28.279Z,100687.91
2019-02-20T20:05:16.874Z,100695.24
2019-02-20T20:08:08.421Z,100699.41
2019-02-20T20:11:14.169Z,100698.71
2019-02-20T20:14:13.392Z,100699.05
2019-02-20T20:17:30.556Z,100709.73
2019-02-20T20:20:31.918Z,100711.67
2019-02-20T20:23:40.114Z,100710.83
2019-02-20T20:26:43.370Z,100703.62
2019-02-20T20:29:37.670Z,100711.75
2019-02-20T20:32:36.719Z,100706.67
2019-02-20T20:35:32.283Z,100713.33
2019-02-20T20:38:43.808Z,100714.08
2019-02-20T20:41:42.257Z,100719.72
2019-02-20T20:44:50.131Z,100717.25
2019-02-20T20:47:50.885Z,100720.30
2019-02-20T20:50:51.445Z,100718.50
2019-02-20T20:54:03.718Z,100715.20
2019-02-20T20:56:57.007Z,100720.17
2019-02-20T20:59:28.544Z,100719.33
2019-02-20T21:02:28.259Z,100714.85
2019-02-20T21:05:34.862Z,100723.38
2019-02-20T21:08:20.182Z,100712.68
2019-02-20T21:11:48.001Z,100721.92
2019-02-20T21:14:36.888Z,100715.41
2019-02-20T21:18:03.338Z,100717.06
2019-02-20T21:21:04.173Z,100721.48
2019-02-20T21:23:51.865Z,100717.11
2019-02-20T21:26:58.511Z,100716.19
2019-02-20T21:30:16.657Z,100713.69
2019-02-20T21:33:24.799Z,100723.37
2019-02-20T21:36:29.151Z,100720.09
2019-02-20T21:39:18.508Z,100720.83
2019-02-20T21:42:17.956Z,100722.89
2019-02-20T21:45:10.715Z,100716.68
2019-02-20T21:47:53.771Z,100721.20
2019-02-20T21:50:40.332Z,100724.83
2019-02-20T21:53:55.480Z,100722.63
2019-02-20T21:56:38.246Z,100726.01
2019-02-20T21:59:40.181Z,100723.80
2019-02-20T22:02:52.423Z,100725.09
2019-02-20T22:06:10.733Z,100728.69
2019-02-20T22:09:12.462Z,100726.12
2019-02-20T22:12:27.267Z,100739.76
2019-02-20T22:15:06.297Z,100737.30
2019-02-20T22:18:02.452Z,100742.88
2019-02-20T22:21:21.412Z,100737.33
2019-02-20T22:24:04.272Z,100736.59
2019-02-20T22:27:31.519Z,100739.67
2019-02-20T22:30:31.297Z,100751.39
2019-02-20T22:33:27.463Z,100746.82
2019-02-20T22:36:12.675Z,100755.12
2019-02-20T22:39:17.355Z,100752.55
2019-02-20T22:42:25.364Z,100748.38
2019-02-20T22:45:43.813Z,100737.33
2019-02-20T22:48:53.280Z,100750.06
2019-02-20T22:52:01.332Z,100741.48
2019-02-20T22:55:10.108Z,100752.86
2019-02-20T22:58:21.181Z,100751.06
2019-02-20T23:01:35.261Z,100753.94
2019-02-20T23:04:46.543Z,100765.75
2019-02-20T23:08:03.688Z,100762.39
2019-02-20T23:11:25.569Z,100768.48
2019-02-20T23:14:31.546Z,100775.19
2019-02-20T23:17:02.299Z,100776.83
2019-02-20T23:19:33.324Z,100782.22
2019-02-20T23:22:04.388Z,100780.63
2019-02-20T23:24:35.394Z,100779.96
2019-02-20T23:27:06.223Z,100783.61
2019-02-20T23:29:37.001Z,100782.63
2019-02-20T23:32:08.227Z,100781.58
2019-02-20T23:34:39.090Z,100785.03
2019-02-20T23:37:10.153Z,100779.22
2019-02-20T23:39:40.939Z,100782.77
2019-02-20T23:42:12.256Z,100781.83
2019-02-20T23:44:43.540Z,100783.11
2019-02-20T23:47:14.274Z,100786.59
2019-02-20T23:49:45.286Z,100788.89
2019-02-20T23:52:16.050Z,100787.47
2019-02-20T23:54:47.026Z,100787.80
2019-02-20T23:57:18.150Z,100783.53
2019-02-20T23:59:48.939Z,100787.56
